sensor_id;sensor_type;location;lat;lon;timestamp;pressure;altitude;pressure_sealevel;temperature;humidity
17781;BME280;8498;52.516;13.790;2023-04-24T00:01:34;99834.97;;;12.79;92.29
17781;BME280;8498;52.516;13.790;2023-04-24T00:06:59;99823.78;;;12.66;92.76
17781;BME280;8498;52.516;13.790;2023-04-24T00:12:22;99833.56;;;12.56;92.55
17781;BME280;8498;52.516;13.790;2023-04-24T00:17:44;99819.22;;;12.47;93.21
17781;BME280;8498;52.516;13.790;2023-04-24T00:23:06;99803.81;;;12.50;94.38
17781;BME280;8498;52.516;13.790;2023-04-24T00:28:29;99797.53;;;12.61;94.02
17781;BME280;8498;52.516;13.790;2023-04-24T00:33:51;99785.75;;;12.54;94.06
17781;BME280;8498;52.516;13.790;2023-04-24T00:39:13;99776.34;;;12.50;93.88
17781;BME280;8498;52.516;13.790;2023-04-24T00:44:36;99773.69;;;12.60;94.30
17781;BME280;8498;52.516;13.790;2023-04-24T00:49:58;99772.97;;;12.58;94.41
17781;BME280;8498;52.516;13.790;2023-04-24T00:55:22;99767.94;;;12.55;94.81
17781;BME280;8498;52.516;13.790;2023-04-24T01:00:44;99761.63;;;12.56;94.30
17781;BME280;8498;52.516;13.790;2023-04-24T01:06:07;99753.06;;;12.52;94.99
17781;BME280;8498;52.516;13.790;2023-04-24T01:11:31;99748.59;;;12.53;95.12
17781;BME280;8498;52.516;13.790;2023-04-24T01:16:54;99746.34;;;12.58;95.50
17781;BME280;8498;52.516;13.790;2023-04-24T01:22:16;99732.03;;;12.59;95.17
17781;BME280;8498;52.516;13.790;2023-04-24T01:27:39;99740.88;;;12.59;95.51
17781;BME280;8498;52.516;13.790;2023-04-24T01:33:02;99745.78;;;12.64;95.10
17781;BME280;8498;52.516;13.790;2023-04-24T01:38:24;99735.53;;;12.59;95.52
17781;BME280;8498;52.516;13.790;2023-04-24T01:43:48;99741.00;;;12.58;94.63
17781;BME280;8498;52.516;13.790;2023-04-24T01:49:11;99736.81;;;12.55;95.09
17781;BME280;8498;52.516;13.790;2023-04-24T01:54:33;99730.91;;;12.52;95.10
17781;BME280;8498;52.516;13.790;2023-04-24T01:59:56;99727.00;;;12.56;95.36
17781;BME280;8498;52.516;13.790;2023-04-24T02:05:19;99724.03;;;12.49;95.26
17781;BME280;8498;52.516;13.790;2023-04-24T02:10:42;99709.88;;;12.48;94.88
17781;BME280;8498;52.516;13.790;2023-04-24T02:16:04;99713.38;;;12.49;95.35
17781;BME280;8498;52.516;13.790;2023-04-24T02:21:27;99709.34;;;12.45;95.13
17781;BME280;8498;52.516;13.790;2023-04-24T02:26:49;99698.38;;;12.38;94.95
17781;BME280;8498;52.516;13.790;2023-04-24T02:32:12;99698.38;;;12.29;95.42
17781;BME280;8498;52.516;13.790;2023-04-24T02:37:34;99694.16;;;12.26;95.51
17781;BME280;8498;52.516;13.790;2023-04-24T02:42:57;99686.19;;;12.26;95.64
17781;BME280;8498;52.516;13.790;2023-04-24T02:48:19;99696.44;;;12.21;94.96
17781;BME280;8498;52.516;13.790;2023-04-24T02:53:43;99683.38;;;12.28;96.75
17781;BME280;8498;52.516;13.790;2023-04-24T02:59:05;99690.84;;;12.34;95.89
17781;BME280;8498;52.516;13.790;2023-04-24T03:04:28;99695.84;;;12.46;95.90
17781;BME280;8498;52.516;13.790;2023-04-24T03:09:51;99688.03;;;12.55;96.33
17781;BME280;8498;52.516;13.790;2023-04-24T03:15:13;99684.78;;;12.61;96.02
17781;BME280;8498;52.516;13.790;2023-04-24T03:20:36;99681.84;;;12.64;96.27
17781;BME280;8498;52.516;13.790;2023-04-24T03:25:59;99683.53;;;12.65;96.22
17781;BME280;8498;52.516;13.790;2023-04-24T03:31:21;99691.78;;;12.62;96.40
17781;BME280;8498;52.516;13.790;2023-04-24T03:36:45;99691.09;;;12.69;96.82
17781;BME280;8498;52.516;13.790;2023-04-24T03:42:10;99695.03;;;12.75;96.52
17781;BME280;8498;52.516;13.790;2023-04-24T03:47:43;99689.97;;;12.72;96.56
17781;BME280;8498;52.516;13.790;2023-04-24T03:53:06;99693.06;;;12.77;96.74
17781;BME280;8498;52.516;13.790;2023-04-24T03:58:32;99703.41;;;12.80;96.57
17781;BME280;8498;52.516;13.790;2023-04-24T04:03:55;99703.41;;;12.80;96.48
17781;BME280;8498;52.516;13.790;2023-04-24T04:09:20;99702.03;;;12.85;96.75
17781;BME280;8498;52.516;13.790;2023-04-24T04:14:42;99703.84;;;12.85;96.80
17781;BME280;8498;52.516;13.790;2023-04-24T04:20:05;99698.50;;;12.85;96.65
17781;BME280;8498;52.516;13.790;2023-04-24T04:25:34;99699.22;;;12.87;96.93
17781;BME280;8498;52.516;13.790;2023-04-24T04:30:57;99688.25;;;12.90;96.69
17781;BME280;8498;52.516;13.790;2023-04-24T04:36:19;99690.22;;;12.98;97.13
17781;BME280;8498;52.516;13.790;2023-04-24T04:41:46;99693.28;;;13.03;96.63
17781;BME280;8498;52.516;13.790;2023-04-24T04:47:13;99700.84;;;13.07;96.20
17781;BME280;8498;52.516;13.790;2023-04-24T04:52:36;99697.19;;;13.08;95.97
17781;BME280;8498;52.516;13.790;2023-04-24T04:58:17;99700.53;;;13.10;96.01
17781;BME280;8498;52.516;13.790;2023-04-24T05:03:42;99710.22;;;13.21;95.80
17781;BME280;8498;52.516;13.790;2023-04-24T05:09:07;99714.88;;;13.29;95.22
17781;BME280;8498;52.516;13.790;2023-04-24T05:14:38;99716.31;;;13.50;94.78
17781;BME280;8498;52.516;13.790;2023-04-24T05:20:01;99711.97;;;13.49;94.28
17781;BME280;8498;52.516;13.790;2023-04-24T05:25:25;99708.25;;;13.60;95.16
17781;BME280;8498;52.516;13.790;2023-04-24T05:30:55;99708.19;;;13.79;94.37
17781;BME280;8498;52.516;13.790;2023-04-24T05:36:19;99699.75;;;14.02;93.09
17781;BME280;8498;52.516;13.790;2023-04-24T05:41:43;99708.31;;;14.05;92.49
17781;BME280;8498;52.516;13.790;2023-04-24T05:47:05;99715.31;;;14.06;91.99
17781;BME280;8498;52.516;13.790;2023-04-24T05:52:28;99725.25;;;14.14;91.51
17781;BME280;8498;52.516;13.790;2023-04-24T05:57:50;99725.09;;;14.15;91.16
17781;BME280;8498;52.516;13.790;2023-04-24T06:03:13;99722.97;;;14.19;90.74
17781;BME280;8498;52.516;13.790;2023-04-24T06:08:35;99732.47;;;14.31;90.36
17781;BME280;8498;52.516;13.790;2023-04-24T06:13:58;99721.31;;;14.36;89.70
17781;BME280;8498;52.516;13.790;2023-04-24T06:19:32;99719.28;;;14.47;88.95
17781;BME280;8498;52.516;13.790;2023-04-24T06:24:55;99718.31;;;14.48;87.68
17781;BME280;8498;52.516;13.790;2023-04-24T06:30:21;99734.25;;;14.58;87.15
17781;BME280;8498;52.516;13.790;2023-04-24T06:35:43;99741.59;;;14.74;86.07
17781;BME280;8498;52.516;13.790;2023-04-24T06:41:06;99738.66;;;14.85;84.49
17781;BME280;8498;52.516;13.790;2023-04-24T06:46:28;99736.59;;;14.79;83.46
17781;BME280;8498;52.516;13.790;2023-04-24T06:51:51;99738.44;;;14.78;83.55
17781;BME280;8498;52.516;13.790;2023-04-24T06:57:13;99738.66;;;14.85;84.21
17781;BME280;8498;52.516;13.790;2023-04-24T07:02:36;99738.66;;;14.85;83.14
17781;BME280;8498;52.516;13.790;2023-04-24T07:08:00;99734.75;;;14.97;82.12
17781;BME280;8498;52.516;13.790;2023-04-24T07:13:23;99733.25;;;15.20;80.36
17781;BME280;8498;52.516;13.790;2023-04-24T07:18:45;99733.38;;;15.36;78.73
17781;BME280;8498;52.516;13.790;2023-04-24T07:24:08;99747.16;;;15.50;77.00
17781;BME280;8498;52.516;13.790;2023-04-24T07:29:34;99740.63;;;15.52;75.77
17781;BME280;8498;52.516;13.790;2023-04-24T07:34:57;99741.44;;;15.70;74.69
17781;BME280;8498;52.516;13.790;2023-04-24T07:40:20;99739.72;;;16.03;73.86
17781;BME280;8498;52.516;13.790;2023-04-24T07:45:43;99730.72;;;16.12;70.70
17781;BME280;8498;52.516;13.790;2023-04-24T07:51:06;99734.09;;;16.31;67.82
17781;BME280;8498;52.516;13.790;2023-04-24T07:56:28;99739.56;;;16.63;68.17
17781;BME280;8498;52.516;13.790;2023-04-24T08:01:53;99741.44;;;17.11;65.07
17781;BME280;8498;52.516;13.790;2023-04-24T08:07:16;99737.34;;;17.40;63.74
17781;BME280;8498;52.516;13.790;2023-04-24T08:12:39;99732.16;;;17.38;63.15
17781;BME280;8498;52.516;13.790;2023-04-24T08:18:02;99729.50;;;17.22;62.31
17781;BME280;8498;52.516;13.790;2023-04-24T08:23:24;99724.09;;;17.38;62.52
17781;BME280;8498;52.516;13.790;2023-04-24T08:28:47;99711.63;;;17.70;62.17
17781;BME280;8498;52.516;13.790;2023-04-24T08:34:09;99712.66;;;18.00;60.81
17781;BME280;8498;52.516;13.790;2023-04-24T08:39:32;99719.75;;;18.23;57.62
17781;BME280;8498;52.516;13.790;2023-04-24T08:44:57;99714.72;;;18.20;58.41
17781;BME280;8498;52.516;13.790;2023-04-24T08:50:21;99714.16;;;18.33;56.17
17781;BME280;8498;52.516;13.790;2023-04-24T08:55:47;99706.88;;;18.42;52.70
17781;BME280;8498;52.516;13.790;2023-04-24T09:01:10;99718.69;;;18.32;55.14
17781;BME280;8498;52.516;13.790;2023-04-24T09:06:34;99732.06;;;18.41;55.75
17781;BME280;8498;52.516;13.790;2023-04-24T09:11:56;99719.16;;;18.67;54.10
17781;BME280;8498;52.516;13.790;2023-04-24T09:17:19;99724.91;;;18.87;50.96
17781;BME280;8498;52.516;13.790;2023-04-24T09:22:42;99727.44;;;18.80;50.02
17781;BME280;8498;52.516;13.790;2023-04-24T09:28:05;99740.88;;;18.34;52.14
17781;BME280;8498;52.516;13.790;2023-04-24T09:33:29;99741.75;;;18.50;50.76
17781;BME280;8498;52.516;13.790;2023-04-24T09:38:55;99748.59;;;18.68;51.22
17781;BME280;8498;52.516;13.790;2023-04-24T09:44:20;99752.81;;;18.63;51.99
17781;BME280;8498;52.516;13.790;2023-04-24T09:49:43;99745.22;;;18.36;52.57
17781;BME280;8498;52.516;13.790;2023-04-24T09:55:18;99749.53;;;18.45;52.84
17781;BME280;8498;52.516;13.790;2023-04-24T10:00:41;99745.84;;;18.46;53.31
17781;BME280;8498;52.516;13.790;2023-04-24T10:06:04;99738.47;;;18.40;54.52
17781;BME280;8498;52.516;13.790;2023-04-24T10:11:33;99741.56;;;18.28;56.94
17781;BME280;8498;52.516;13.790;2023-04-24T10:16:55;99745.44;;;17.95;57.71
17781;BME280;8498;52.516;13.790;2023-04-24T10:22:21;99742.88;;;17.63;58.41
17781;BME280;8498;52.516;13.790;2023-04-24T10:27:46;99748.59;;;17.43;59.73
17781;BME280;8498;52.516;13.790;2023-04-24T10:33:08;99748.59;;;17.35;64.26
17781;BME280;8498;52.516;13.790;2023-04-24T10:38:31;99753.97;;;17.43;66.23
17781;BME280;8498;52.516;13.790;2023-04-24T10:49:30;99754.59;;;18.09;59.71
17781;BME280;8498;52.516;13.790;2023-04-24T10:54:53;99759.13;;;18.16;59.06
17781;BME280;8498;52.516;13.790;2023-04-24T11:00:21;99750.44;;;18.37;58.39
17781;BME280;8498;52.516;13.790;2023-04-24T11:05:55;99747.66;;;19.36;54.82
17781;BME280;8498;52.516;13.790;2023-04-24T11:11:18;99731.66;;;21.02;51.00
17781;BME280;8498;52.516;13.790;2023-04-24T11:16:53;99721.97;;;21.35;48.77
17781;BME280;8498;52.516;13.790;2023-04-24T11:22:18;99722.63;;;20.31;48.36
17781;BME280;8498;52.516;13.790;2023-04-24T11:27:43;99713.31;;;20.33;48.93
17781;BME280;8498;52.516;13.790;2023-04-24T11:33:06;99721.00;;;20.72;46.93
17781;BME280;8498;52.516;13.790;2023-04-24T11:38:28;99716.78;;;21.12;47.84
17781;BME280;8498;52.516;13.790;2023-04-24T11:43:51;99716.63;;;21.42;46.98
17781;BME280;8498;52.516;13.790;2023-04-24T11:49:15;99704.13;;;21.69;45.28
17781;BME280;8498;52.516;13.790;2023-04-24T11:54:37;99721.34;;;20.84;46.27
17781;BME280;8498;52.516;13.790;2023-04-24T12:00:03;99736.09;;;19.65;48.46
17781;BME280;8498;52.516;13.790;2023-04-24T12:05:33;99739.03;;;19.03;49.96
17781;BME280;8498;52.516;13.790;2023-04-24T12:10:56;99746.53;;;18.40;54.65
17781;BME280;8498;52.516;13.790;2023-04-24T12:16:19;99745.75;;;18.00;60.86
17781;BME280;8498;52.516;13.790;2023-04-24T12:21:42;99743.69;;;18.10;65.25
17781;BME280;8498;52.516;13.790;2023-04-24T12:27:04;99735.44;;;19.49;61.68
17781;BME280;8498;52.516;13.790;2023-04-24T12:32:27;99715.75;;;20.28;54.51
17781;BME280;8498;52.516;13.790;2023-04-24T12:37:50;99719.47;;;20.27;53.72
17781;BME280;8498;52.516;13.790;2023-04-24T12:43:20;99721.06;;;19.71;52.84
17781;BME280;8498;52.516;13.790;2023-04-24T12:48:42;99718.28;;;19.27;54.64
17781;BME280;8498;52.516;13.790;2023-04-24T12:54:05;99712.81;;;19.94;53.49
17781;BME280;8498;52.516;13.790;2023-04-24T12:59:28;99707.81;;;20.41;48.06
17781;BME280;8498;52.516;13.790;2023-04-24T13:04:51;99705.00;;;20.49;48.96
17781;BME280;8498;52.516;13.790;2023-04-24T13:10:14;99689.88;;;19.83;47.38
17781;BME280;8498;52.516;13.790;2023-04-24T13:15:36;99695.66;;;19.65;46.37
17781;BME280;8498;52.516;13.790;2023-04-24T13:20:59;99703.47;;;19.75;44.63
17781;BME280;8498;52.516;13.790;2023-04-24T13:26:21;99690.78;;;20.05;43.05
17781;BME280;8498;52.516;13.790;2023-04-24T13:31:44;99687.84;;;20.78;38.99
17781;BME280;8498;52.516;13.790;2023-04-24T13:37:06;99699.53;;;21.69;37.25
17781;BME280;8498;52.516;13.790;2023-04-24T13:42:30;99684.25;;;21.48;37.44
17781;BME280;8498;52.516;13.790;2023-04-24T13:47:53;99682.50;;;21.41;37.52
17781;BME280;8498;52.516;13.790;2023-04-24T13:53:19;99677.50;;;20.82;38.19
17781;BME280;8498;52.516;13.790;2023-04-24T13:58:41;99686.84;;;21.07;37.46
17781;BME280;8498;52.516;13.790;2023-04-24T14:04:03;99673.28;;;21.29;35.95
17781;BME280;8498;52.516;13.790;2023-04-24T14:09:26;99691.88;;;20.89;34.52
17781;BME280;8498;52.516;13.790;2023-04-24T14:14:49;99682.00;;;20.75;35.02
17781;BME280;8498;52.516;13.790;2023-04-24T14:20:12;99679.94;;;20.77;35.79
17781;BME280;8498;52.516;13.790;2023-04-24T14:25:34;99670.72;;;20.65;35.52
17781;BME280;8498;52.516;13.790;2023-04-24T14:30:57;99674.47;;;21.19;35.07
17781;BME280;8498;52.516;13.790;2023-04-24T14:36:19;99680.22;;;21.38;34.82
17781;BME280;8498;52.516;13.790;2023-04-24T14:41:42;99666.16;;;21.96;33.69
17781;BME280;8498;52.516;13.790;2023-04-24T14:47:04;99669.53;;;21.23;34.67
17781;BME280;8498;52.516;13.790;2023-04-24T14:52:28;99677.78;;;20.66;35.82
17781;BME280;8498;52.516;13.790;2023-04-24T14:57:50;99679.00;;;20.27;36.75
17781;BME280;8498;52.516;13.790;2023-04-24T15:03:12;99682.78;;;20.69;35.94
17781;BME280;8498;52.516;13.790;2023-04-24T15:08:35;99691.13;;;20.74;34.03
17781;BME280;8498;52.516;13.790;2023-04-24T15:13:58;99690.22;;;20.67;35.14
17781;BME280;8498;52.516;13.790;2023-04-24T15:19:20;99682.72;;;20.26;36.06
17781;BME280;8498;52.516;13.790;2023-04-24T15:24:42;99688.16;;;20.69;35.13
17781;BME280;8498;52.516;13.790;2023-04-24T15:30:05;99683.19;;;20.30;35.91
17781;BME280;8498;52.516;13.790;2023-04-24T15:35:28;99692.72;;;19.60;36.91
17781;BME280;8498;52.516;13.790;2023-04-24T15:40:50;99703.66;;;19.59;37.60
17781;BME280;8498;52.516;13.790;2023-04-24T15:46:13;99708.84;;;20.26;38.03
17781;BME280;8498;52.516;13.790;2023-04-24T15:51:35;99706.41;;;19.36;38.03
17781;BME280;8498;52.516;13.790;2023-04-24T15:56:58;99710.56;;;19.09;38.90
17781;BME280;8498;52.516;13.790;2023-04-24T16:02:23;99712.91;;;19.27;37.77
17781;BME280;8498;52.516;13.790;2023-04-24T16:07:45;99720.38;;;18.79;37.73
17781;BME280;8498;52.516;13.790;2023-04-24T16:13:08;99726.13;;;18.53;38.93
17781;BME280;8498;52.516;13.790;2023-04-24T16:18:30;99733.38;;;18.22;39.52
17781;BME280;8498;52.516;13.790;2023-04-24T16:23:53;99745.25;;;18.27;41.62
17781;BME280;8498;52.516;13.790;2023-04-24T16:29:16;99750.34;;;18.22;40.76
17781;BME280;8498;52.516;13.790;2023-04-24T16:34:38;99751.63;;;18.04;41.37
17781;BME280;8498;52.516;13.790;2023-04-24T16:40:01;99756.13;;;17.48;41.28
17781;BME280;8498;52.516;13.790;2023-04-24T16:45:25;99761.69;;;17.38;42.60
17781;BME280;8498;52.516;13.790;2023-04-24T16:50:47;99758.34;;;17.20;43.19
17781;BME280;8498;52.516;13.790;2023-04-24T16:56:09;99758.69;;;17.09;42.91
17781;BME280;8498;52.516;13.790;2023-04-24T17:01:32;99768.44;;;17.10;43.82
17781;BME280;8498;52.516;13.790;2023-04-24T17:06:54;99758.19;;;17.05;43.91
17781;BME280;8498;52.516;13.790;2023-04-24T17:12:17;99762.38;;;17.16;43.85
17781;BME280;8498;52.516;13.790;2023-04-24T17:17:39;99766.06;;;17.15;44.06
17781;BME280;8498;52.516;13.790;2023-04-24T17:23:05;99764.91;;;17.01;44.58
17781;BME280;8498;52.516;13.790;2023-04-24T17:28:29;99809.84;;;16.41;47.55
17781;BME280;8498;52.516;13.790;2023-04-24T17:33:52;99812.00;;;15.87;49.35
17781;BME280;8498;52.516;13.790;2023-04-24T17:39:14;99830.44;;;15.64;49.96
17781;BME280;8498;52.516;13.790;2023-04-24T17:44:37;99832.88;;;15.58;50.64
17781;BME280;8498;52.516;13.790;2023-04-24T17:50:00;99840.53;;;15.53;51.53
17781;BME280;8498;52.516;13.790;2023-04-24T17:55:25;99857.53;;;15.43;53.05
17781;BME280;8498;52.516;13.790;2023-04-24T18:00:47;99865.63;;;15.16;55.34
17781;BME280;8498;52.516;13.790;2023-04-24T18:06:09;99876.63;;;14.95;56.93
17781;BME280;8498;52.516;13.790;2023-04-24T18:11:32;99890.28;;;14.75;57.10
17781;BME280;8498;52.516;13.790;2023-04-24T18:16:56;99897.94;;;14.69;57.44
17781;BME280;8498;52.516;13.790;2023-04-24T18:22:19;99916.75;;;14.50;57.47
17781;BME280;8498;52.516;13.790;2023-04-24T18:27:42;99926.06;;;14.37;57.51
17781;BME280;8498;52.516;13.790;2023-04-24T18:33:04;99942.09;;;14.37;57.58
17781;BME280;8498;52.516;13.790;2023-04-24T18:38:26;99938.81;;;14.06;58.26
17781;BME280;8498;52.516;13.790;2023-04-24T18:43:49;99939.97;;;13.93;58.43
17781;BME280;8498;52.516;13.790;2023-04-24T18:49:12;99959.13;;;13.79;59.05
17781;BME280;8498;52.516;13.790;2023-04-24T18:54:35;99968.22;;;13.86;57.69
17781;BME280;8498;52.516;13.790;2023-04-24T18:59:58;99973.03;;;13.64;58.05
17781;BME280;8498;52.516;13.790;2023-04-24T19:05:20;99982.72;;;13.55;58.44
17781;BME280;8498;52.516;13.790;2023-04-24T19:10:44;100004.06;;;13.45;57.88
17781;BME280;8498;52.516;13.790;2023-04-24T19:16:07;99990.56;;;13.18;58.92
17781;BME280;8498;52.516;13.790;2023-04-24T19:21:29;100023.38;;;13.18;59.01
17781;BME280;8498;52.516;13.790;2023-04-24T19:26:52;100026.69;;;13.11;59.90
17781;BME280;8498;52.516;13.790;2023-04-24T19:32:15;100028.03;;;12.86;58.20
17781;BME280;8498;52.516;13.790;2023-04-24T19:37:38;100037.91;;;12.95;58.02
17781;BME280;8498;52.516;13.790;2023-04-24T19:43:00;100038.47;;;13.08;57.37
17781;BME280;8498;52.516;13.790;2023-04-24T19:48:23;100045.09;;;13.04;57.93
17781;BME280;8498;52.516;13.790;2023-04-24T19:53:45;100047.13;;;12.91;58.51
17781;BME280;8498;52.516;13.790;2023-04-24T19:59:07;100045.81;;;12.76;59.78
17781;BME280;8498;52.516;13.790;2023-04-24T20:04:29;100051.25;;;12.65;60.90
17781;BME280;8498;52.516;13.790;2023-04-24T20:09:52;100050.59;;;12.52;62.12
17781;BME280;8498;52.516;13.790;2023-04-24T20:15:15;100054.97;;;12.53;62.25
17781;BME280;8498;52.516;13.790;2023-04-24T20:20:37;100042.88;;;12.48;62.33
17781;BME280;8498;52.516;13.790;2023-04-24T20:26:02;100057.50;;;12.33;62.55
17781;BME280;8498;52.516;13.790;2023-04-24T20:31:26;100044.09;;;12.14;63.14
17781;BME280;8498;52.516;13.790;2023-04-24T20:36:49;100035.31;;;12.02;63.66
17781;BME280;8498;52.516;13.790;2023-04-24T20:42:11;100045.84;;;12.04;63.89
17781;BME280;8498;52.516;13.790;2023-04-24T20:47:34;100068.47;;;11.98;63.34
17781;BME280;8498;52.516;13.790;2023-04-24T20:52:57;100062.81;;;11.92;63.14
17781;BME280;8498;52.516;13.790;2023-04-24T20:58:20;100059.94;;;11.84;63.63
17781;BME280;8498;52.516;13.790;2023-04-24T21:03:44;100054.97;;;11.90;64.12
17781;BME280;8498;52.516;13.790;2023-04-24T21:09:06;100049.19;;;12.06;64.24
17781;BME280;8498;52.516;13.790;2023-04-24T21:14:29;100048.56;;;12.13;63.37
17781;BME280;8498;52.516;13.790;2023-04-24T21:19:52;100057.66;;;12.11;63.77
17781;BME280;8498;52.516;13.790;2023-04-24T21:25:14;100054.72;;;11.93;65.14
17781;BME280;8498;52.516;13.790;2023-04-24T21:30:37;100051.53;;;11.99;64.61
17781;BME280;8498;52.516;13.790;2023-04-24T21:35:59;100059.06;;;12.15;64.94
17781;BME280;8498;52.516;13.790;2023-04-24T21:41:24;100048.47;;;11.83;65.80
17781;BME280;8498;52.516;13.790;2023-04-24T21:46:46;100052.06;;;11.93;65.53
17781;BME280;8498;52.516;13.790;2023-04-24T21:52:08;100047.38;;;12.27;64.64
17781;BME280;8498;52.516;13.790;2023-04-24T21:57:31;100047.06;;;12.21;65.29
17781;BME280;8498;52.516;13.790;2023-04-24T22:02:53;100046.25;;;12.30;64.87
17781;BME280;8498;52.516;13.790;2023-04-24T22:08:16;100050.75;;;12.29;64.63
17781;BME280;8498;52.516;13.790;2023-04-24T22:13:38;100052.13;;;12.24;65.82
17781;BME280;8498;52.516;13.790;2023-04-24T22:19:01;100047.00;;;12.11;65.52
17781;BME280;8498;52.516;13.790;2023-04-24T22:24:23;100054.63;;;12.25;65.06
17781;BME280;8498;52.516;13.790;2023-04-24T22:29:46;100048.41;;;12.15;66.49
17781;BME280;8498;52.516;13.790;2023-04-24T22:35:08;100043.59;;;12.09;65.95
17781;BME280;8498;52.516;13.790;2023-04-24T22:40:31;100037.25;;;11.68;67.77
17781;BME280;8498;52.516;13.790;2023-04-24T22:45:55;100043.00;;;11.85;68.29
17781;BME280;8498;52.516;13.790;2023-04-24T22:51:18;100048.72;;;11.80;68.75
17781;BME280;8498;52.516;13.790;2023-04-24T22:56:40;100051.25;;;11.82;68.63
17781;BME280;8498;52.516;13.790;2023-04-24T23:02:04;100050.03;;;12.06;67.75
17781;BME280;8498;52.516;13.790;2023-04-24T23:07:26;100048.28;;;12.17;67.34
17781;BME280;8498;52.516;13.790;2023-04-24T23:12:50;100047.69;;;11.92;67.29
17781;BME280;8498;52.516;13.790;2023-04-24T23:18:12;100053.75;;;11.51;69.47
17781;BME280;8498;52.516;13.790;2023-04-24T23:23:35;100050.44;;;11.16;71.39
17781;BME280;8498;52.516;13.790;2023-04-24T23:28:57;100039.25;;;10.79;72.98
17781;BME280;8498;52.516;13.790;2023-04-24T23:34:19;100040.34;;;10.76;73.46
17781;BME280;8498;52.516;13.790;2023-04-24T23:39:42;100032.81;;;10.92;73.40
17781;BME280;8498;52.516;13.790;2023-04-24T23:45:04;100036.34;;;10.71;74.28
17781;BME280;8498;52.516;13.790;2023-04-24T23:50:27;100025.47;;;10.62;74.25
17781;BME280;8498;52.516;13.790;2023-04-24T23:55:49;100021.84;;;10.52;74.68
